sensor_id;sensor_type;location;lat;lon;timestamp;pressure;altitude;pressure_sealevel;temperature;humidity
9899;BME280;4988;49.238;6.698;2023-01-19T00:02:23;98089.31;;;-0.72;96.91
9899;BME280;4988;49.238;6.698;2023-01-19T00:04:48;98087.53;;;-0.69;96.39
9899;BME280;4988;49.238;6.698;2023-01-19T00:07:14;98089.25;;;-0.68;95.43
9899;BME280;4988;49.238;6.698;2023-01-19T00:09:40;98089.34;;;-0.74;95.96
9899;BME280;4988;49.238;6.698;2023-01-19T00:12:05;98090.25;;;-0.75;96.28
9899;BME280;4988;49.238;6.698;2023-01-19T00:14:31;98092.78;;;-0.72;95.87
9899;BME280;4988;49.238;6.698;2023-01-19T00:16:56;98092.03;;;-0.78;95.76
9899;BME280;4988;49.238;6.698;2023-01-19T00:19:22;98091.09;;;-0.74;96.28
9899;BME280;4988;49.238;6.698;2023-01-19T00:21:47;98089.34;;;-0.74;97.32
9899;BME280;4988;49.238;6.698;2023-01-19T00:24:12;98096.38;;;-0.79;97.73
9899;BME280;4988;49.238;6.698;2023-01-19T00:26:38;98097.19;;;-0.75;98.39
9899;BME280;4988;49.238;6.698;2023-01-19T00:29:05;98104.09;;;-0.70;99.14
9899;BME280;4988;49.238;6.698;2023-01-19T00:31:32;98098.78;;;-0.65;99.31
9899;BME280;4988;49.238;6.698;2023-01-19T00:33:58;98096.13;;;-0.63;99.80
9899;BME280;4988;49.238;6.698;2023-01-19T00:36:23;98105.56;;;-0.55;100.00
9899;BME280;4988;49.238;6.698;2023-01-19T00:38:49;98102.06;;;-0.54;100.00
9899;BME280;4988;49.238;6.698;2023-01-19T00:41:14;98103.81;;;-0.54;100.00
9899;BME280;4988;49.238;6.698;2023-01-19T00:43:40;98101.72;;;-0.35;100.00
9899;BME280;4988;49.238;6.698;2023-01-19T00:46:05;98089.41;;;-0.30;100.00
9899;BME280;4988;49.238;6.698;2023-01-19T00:48:30;98093.72;;;-0.27;100.00
9899;BME280;4988;49.238;6.698;2023-01-19T00:50:56;98089.25;;;-0.21;100.00
9899;BME280;4988;49.238;6.698;2023-01-19T00:53:21;98093.59;;;-0.21;100.00
9899;BME280;4988;49.238;6.698;2023-01-19T00:55:46;98091.81;;;-0.19;100.00
9899;BME280;4988;49.238;6.698;2023-01-19T00:58:12;98102.16;;;-0.13;100.00
9899;BME280;4988;49.238;6.698;2023-01-19T01:00:37;98099.50;;;-0.10;100.00
9899;BME280;4988;49.238;6.698;2023-01-19T01:03:03;98101.94;;;-0.02;100.00
9899;BME280;4988;49.238;6.698;2023-01-19T01:05:28;98102.78;;;-0.02;100.00
9899;BME280;4988;49.238;6.698;2023-01-19T01:07:53;98099.25;;;0.01;100.00
9899;BME280;4988;49.238;6.698;2023-01-19T01:10:21;98100.19;;;-0.02;100.00
9899;BME280;4988;49.238;6.698;2023-01-19T01:12:48;98100.19;;;-0.02;100.00
9899;BME280;4988;49.238;6.698;2023-01-19T01:15:15;98110.59;;;0.02;100.00
9899;BME280;4988;49.238;6.698;2023-01-19T01:17:41;98107.47;;;-0.16;100.00
9899;BME280;4988;49.238;6.698;2023-01-19T01:20:15;98113.53;;;-0.15;100.00
9899;BME280;4988;49.238;6.698;2023-01-19T01:22:43;98109.41;;;-0.26;100.00
9899;BME280;4988;49.238;6.698;2023-01-19T01:25:13;98112.97;;;-0.31;100.00
9899;BME280;4988;49.238;6.698;2023-01-19T01:27:39;98104.38;;;-0.37;100.00
9899;BME280;4988;49.238;6.698;2023-01-19T01:30:06;98101.56;;;-0.26;100.00
9899;BME280;4988;49.238;6.698;2023-01-19T01:32:31;98116.25;;;-0.20;100.00
9899;BME280;4988;49.238;6.698;2023-01-19T01:34:56;98117.00;;;-0.15;100.00
9899;BME280;4988;49.238;6.698;2023-01-19T01:37:22;98116.19;;;-0.17;100.00
9899;BME280;4988;49.238;6.698;2023-01-19T01:39:48;98121.31;;;-0.11;100.00
9899;BME280;4988;49.238;6.698;2023-01-19T01:42:16;98125.66;;;-0.10;100.00
9899;BME280;4988;49.238;6.698;2023-01-19T01:44:52;98124.59;;;-0.03;99.28
9899;BME280;4988;49.238;6.698;2023-01-19T01:49:56;98125.03;;;-0.24;100.00
9899;BME280;4988;49.238;6.698;2023-01-19T01:52:25;98120.06;;;-0.37;100.00
9899;BME280;4988;49.238;6.698;2023-01-19T01:54:53;98124.47;;;-0.40;100.00
9899;BME280;4988;49.238;6.698;2023-01-19T01:57:19;98124.41;;;-0.36;100.00
9899;BME280;4988;49.238;6.698;2023-01-19T01:59:46;98127.84;;;-0.35;100.00
9899;BME280;4988;49.238;6.698;2023-01-19T02:02:24;98122.91;;;-0.51;100.00
9899;BME280;4988;49.238;6.698;2023-01-19T02:05:12;98126.53;;;-0.59;100.00
9899;BME280;4988;49.238;6.698;2023-01-19T02:08:02;98128.53;;;-0.72;100.00
9899;BME280;4988;49.238;6.698;2023-01-19T02:10:49;98127.53;;;-0.67;100.00
9899;BME280;4988;49.238;6.698;2023-01-19T02:13:36;98125.63;;;-0.55;100.00
9899;BME280;4988;49.238;6.698;2023-01-19T02:16:06;98128.19;;;-0.54;100.00
9899;BME280;4988;49.238;6.698;2023-01-19T02:18:32;98131.91;;;-0.67;100.00
9899;BME280;4988;49.238;6.698;2023-01-19T02:26:04;98138.47;;;-0.94;100.00
9899;BME280;4988;49.238;6.698;2023-01-19T02:28:34;98140.00;;;-0.81;100.00
9899;BME280;4988;49.238;6.698;2023-01-19T02:31:00;98141.81;;;-0.86;100.00
9899;BME280;4988;49.238;6.698;2023-01-19T02:33:26;98147.81;;;-0.81;100.00
9899;BME280;4988;49.238;6.698;2023-01-19T02:35:52;98146.84;;;-0.74;100.00
9899;BME280;4988;49.238;6.698;2023-01-19T02:38:19;98147.44;;;-0.58;100.00
9899;BME280;4988;49.238;6.698;2023-01-19T02:40:46;98150.69;;;-0.45;100.00
9899;BME280;4988;49.238;6.698;2023-01-19T02:43:14;98148.69;;;-0.30;100.00
9899;BME280;4988;49.238;6.698;2023-01-19T02:45:41;98150.25;;;-0.20;100.00
9899;BME280;4988;49.238;6.698;2023-01-19T02:48:07;98147.50;;;-0.14;100.00
9899;BME280;4988;49.238;6.698;2023-01-19T02:50:43;98153.50;;;-0.07;100.00
9899;BME280;4988;49.238;6.698;2023-01-19T02:53:37;98154.44;;;-0.11;100.00
9899;BME280;4988;49.238;6.698;2023-01-19T02:56:21;98150.16;;;-0.15;100.00
9899;BME280;4988;49.238;6.698;2023-01-19T03:01:36;98146.31;;;-0.43;100.00
9899;BME280;4988;49.238;6.698;2023-01-19T03:04:22;98147.16;;;-0.42;100.00
9899;BME280;4988;49.238;6.698;2023-01-19T03:09:48;98149.50;;;-0.28;100.00
9899;BME280;4988;49.238;6.698;2023-01-19T03:12:32;98148.72;;;-0.32;100.00
9899;BME280;4988;49.238;6.698;2023-01-19T03:15:17;98149.63;;;-0.35;100.00
9899;BME280;4988;49.238;6.698;2023-01-19T03:17:45;98146.22;;;-0.40;100.00
9899;BME280;4988;49.238;6.698;2023-01-19T03:20:14;98148.03;;;-0.42;100.00
9899;BME280;4988;49.238;6.698;2023-01-19T03:22:43;98145.38;;;-0.40;100.00
9899;BME280;4988;49.238;6.698;2023-01-19T03:25:10;98147.97;;;-0.39;100.00
9899;BME280;4988;49.238;6.698;2023-01-19T03:27:38;98151.47;;;-0.40;100.00
9899;BME280;4988;49.238;6.698;2023-01-19T03:30:19;98152.34;;;-0.39;100.00
9899;BME280;4988;49.238;6.698;2023-01-19T03:32:59;98160.16;;;-0.38;100.00
9899;BME280;4988;49.238;6.698;2023-01-19T03:35:30;98152.25;;;-0.35;100.00
9899;BME280;4988;49.238;6.698;2023-01-19T03:37:57;98153.84;;;-0.26;100.00
9899;BME280;4988;49.238;6.698;2023-01-19T03:40:26;98151.31;;;-0.30;100.00
9899;BME280;4988;49.238;6.698;2023-01-19T03:42:54;98157.38;;;-0.30;100.00
9899;BME280;4988;49.238;6.698;2023-01-19T03:45:20;98165.16;;;-0.25;100.00
9899;BME280;4988;49.238;6.698;2023-01-19T03:47:47;98163.31;;;-0.20;100.00
9899;BME280;4988;49.238;6.698;2023-01-19T03:50:19;98162.31;;;-0.13;100.00
9899;BME280;4988;49.238;6.698;2023-01-19T03:52:59;98163.09;;;-0.08;100.00
9899;BME280;4988;49.238;6.698;2023-01-19T03:55:25;98157.50;;;0.11;100.00
9899;BME280;4988;49.238;6.698;2023-01-19T03:57:50;98162.13;;;-0.02;100.00
9899;BME280;4988;49.238;6.698;2023-01-19T04:00:16;98165.63;;;-0.03;100.00
9899;BME280;4988;49.238;6.698;2023-01-19T04:02:41;98165.69;;;-0.08;100.00
9899;BME280;4988;49.238;6.698;2023-01-19T04:05:06;98164.94;;;-0.13;100.00
9899;BME280;4988;49.238;6.698;2023-01-19T04:07:32;98170.22;;;-0.16;100.00
9899;BME280;4988;49.238;6.698;2023-01-19T04:09:57;98174.66;;;-0.20;100.00
9899;BME280;4988;49.238;6.698;2023-01-19T04:12:22;98171.13;;;-0.19;100.00
9899;BME280;4988;49.238;6.698;2023-01-19T04:14:48;98173.66;;;-0.14;100.00
9899;BME280;4988;49.238;6.698;2023-01-19T04:17:13;98176.13;;;-0.06;100.00
9899;BME280;4988;49.238;6.698;2023-01-19T04:19:39;98172.56;;;-0.02;100.00
9899;BME280;4988;49.238;6.698;2023-01-19T04:22:04;98170.78;;;0.02;100.00
9899;BME280;4988;49.238;6.698;2023-01-19T04:24:30;98168.78;;;0.13;100.00
9899;BME280;4988;49.238;6.698;2023-01-19T04:26:55;98179.50;;;0.01;100.00
9899;BME280;4988;49.238;6.698;2023-01-19T04:29:21;98179.63;;;-0.06;100.00
9899;BME280;4988;49.238;6.698;2023-01-19T04:31:46;98174.44;;;-0.07;100.00
9899;BME280;4988;49.238;6.698;2023-01-19T04:34:12;98176.88;;;0.01;100.00
9899;BME280;4988;49.238;6.698;2023-01-19T04:36:37;98176.66;;;0.13;100.00
9899;BME280;4988;49.238;6.698;2023-01-19T04:39:02;98167.78;;;0.20;100.00
9899;BME280;4988;49.238;6.698;2023-01-19T04:41:29;98168.50;;;0.28;100.00
9899;BME280;4988;49.238;6.698;2023-01-19T04:43:54;98164.06;;;0.30;100.00
9899;BME280;4988;49.238;6.698;2023-01-19T04:46:19;98162.31;;;0.32;100.00
9899;BME280;4988;49.238;6.698;2023-01-19T04:48:45;98162.09;;;0.42;100.00
9899;BME280;4988;49.238;6.698;2023-01-19T04:51:10;98161.34;;;0.37;100.00
9899;BME280;4988;49.238;6.698;2023-01-19T04:53:36;98164.56;;;0.48;100.00
9899;BME280;4988;49.238;6.698;2023-01-19T04:56:01;98162.84;;;0.48;100.00
9899;BME280;4988;49.238;6.698;2023-01-19T04:58:26;98163.09;;;0.36;100.00
9899;BME280;4988;49.238;6.698;2023-01-19T05:00:52;98164.19;;;0.24;100.00
9899;BME280;4988;49.238;6.698;2023-01-19T05:03:18;98164.06;;;0.30;100.00
9899;BME280;4988;49.238;6.698;2023-01-19T05:05:43;98164.28;;;0.21;100.00
9899;BME280;4988;49.238;6.698;2023-01-19T05:08:09;98160.09;;;0.11;100.00
9899;BME280;4988;49.238;6.698;2023-01-19T05:10:34;98159.22;;;0.12;100.00
9899;BME280;4988;49.238;6.698;2023-01-19T05:13:00;98163.66;;;0.08;100.00
9899;BME280;4988;49.238;6.698;2023-01-19T05:15:26;98171.53;;;0.07;100.00
9899;BME280;4988;49.238;6.698;2023-01-19T05:17:51;98173.31;;;0.05;100.00
9899;BME280;4988;49.238;6.698;2023-01-19T05:20:17;98167.16;;;0.09;100.00
9899;BME280;4988;49.238;6.698;2023-01-19T05:22:48;98168.84;;;0.10;100.00
9899;BME280;4988;49.238;6.698;2023-01-19T05:25:14;98176.81;;;0.04;100.00
9899;BME280;4988;49.238;6.698;2023-01-19T05:27:40;98172.41;;;0.06;100.00
9899;BME280;4988;49.238;6.698;2023-01-19T05:30:05;98161.91;;;0.09;100.00
9899;BME280;4988;49.238;6.698;2023-01-19T05:32:31;98163.59;;;0.10;100.00
9899;BME280;4988;49.238;6.698;2023-01-19T05:34:56;98160.09;;;0.11;100.00
9899;BME280;4988;49.238;6.698;2023-01-19T05:37:21;98162.97;;;-0.02;100.00
9899;BME280;4988;49.238;6.698;2023-01-19T05:39:46;98155.09;;;0.00;100.00
9899;BME280;4988;49.238;6.698;2023-01-19T05:42:12;98153.31;;;0.02;100.00
9899;BME280;4988;49.238;6.698;2023-01-19T05:44:37;98162.31;;;-0.13;100.00
9899;BME280;4988;49.238;6.698;2023-01-19T05:47:03;98160.72;;;-0.22;100.00
9899;BME280;4988;49.238;6.698;2023-01-19T05:49:29;98168.66;;;-0.26;100.00
9899;BME280;4988;49.238;6.698;2023-01-19T05:51:54;98171.34;;;-0.29;100.00
9899;BME280;4988;49.238;6.698;2023-01-19T05:54:20;98166.00;;;-0.23;100.00
9899;BME280;4988;49.238;6.698;2023-01-19T05:56:45;98173.66;;;-0.14;100.00
9899;BME280;4988;49.238;6.698;2023-01-19T05:59:10;98182.09;;;0.02;100.00
9899;BME280;4988;49.238;6.698;2023-01-19T06:01:37;98181.16;;;0.05;100.00
9899;BME280;4988;49.238;6.698;2023-01-19T06:04:03;98184.03;;;-0.09;100.00
9899;BME280;4988;49.238;6.698;2023-01-19T06:06:28;98177.13;;;-0.12;100.00
9899;BME280;4988;49.238;6.698;2023-01-19T06:08:54;98185.09;;;-0.18;100.00
9899;BME280;4988;49.238;6.698;2023-01-19T06:11:19;98188.63;;;-0.21;100.00
9899;BME280;4988;49.238;6.698;2023-01-19T06:13:45;98189.34;;;-0.14;100.00
9899;BME280;4988;49.238;6.698;2023-01-19T06:16:11;98191.81;;;-0.06;100.00
9899;BME280;4988;49.238;6.698;2023-01-19T06:18:36;98197.81;;;0.01;100.00
9899;BME280;4988;49.238;6.698;2023-01-19T06:21:03;98204.81;;;-0.02;100.00
9899;BME280;4988;49.238;6.698;2023-01-19T06:23:30;98202.19;;;-0.02;100.00
9899;BME280;4988;49.238;6.698;2023-01-19T06:25:57;98208.41;;;-0.06;100.00
9899;BME280;4988;49.238;6.698;2023-01-19T06:28:22;98204.78;;;0.02;100.00
9899;BME280;4988;49.238;6.698;2023-01-19T06:30:48;98213.31;;;0.10;100.00
9899;BME280;4988;49.238;6.698;2023-01-19T06:33:15;98219.16;;;0.24;100.00
9899;BME280;4988;49.238;6.698;2023-01-19T06:35:44;98224.47;;;0.20;100.00
9899;BME280;4988;49.238;6.698;2023-01-19T06:38:10;98221.06;;;0.18;100.00
9899;BME280;4988;49.238;6.698;2023-01-19T06:40:38;98225.34;;;0.20;100.00
9899;BME280;4988;49.238;6.698;2023-01-19T06:43:03;98226.97;;;0.27;100.00
9899;BME280;4988;49.238;6.698;2023-01-19T06:45:28;98222.66;;;0.23;100.00
9899;BME280;4988;49.238;6.698;2023-01-19T06:47:54;98232.31;;;0.21;100.00
9899;BME280;4988;49.238;6.698;2023-01-19T06:50:19;98234.91;;;0.23;100.00
9899;BME280;4988;49.238;6.698;2023-01-19T06:52:44;98234.94;;;0.20;100.00
9899;BME280;4988;49.238;6.698;2023-01-19T06:55:10;98239.34;;;0.19;100.00
9899;BME280;4988;49.238;6.698;2023-01-19T06:57:38;98242.84;;;0.18;100.00
9899;BME280;4988;49.238;6.698;2023-01-19T07:00:04;98242.84;;;0.18;100.00
9899;BME280;4988;49.238;6.698;2023-01-19T07:02:35;98238.47;;;0.17;100.00
9899;BME280;4988;49.238;6.698;2023-01-19T07:05:01;98244.53;;;0.21;100.00
9899;BME280;4988;49.238;6.698;2023-01-19T07:07:27;98253.34;;;0.17;100.00
9899;BME280;4988;49.238;6.698;2023-01-19T07:09:52;98249.84;;;0.16;100.00
9899;BME280;4988;49.238;6.698;2023-01-19T07:12:17;98249.84;;;0.18;100.00
9899;BME280;4988;49.238;6.698;2023-01-19T07:14:43;98248.06;;;0.18;100.00
9899;BME280;4988;49.238;6.698;2023-01-19T07:17:09;98256.81;;;0.17;100.00
9899;BME280;4988;49.238;6.698;2023-01-19T07:19:34;98249.84;;;0.18;100.00
9899;BME280;4988;49.238;6.698;2023-01-19T07:22:00;98261.09;;;0.21;100.00
9899;BME280;4988;49.238;6.698;2023-01-19T07:24:26;98265.38;;;0.25;100.00
9899;BME280;4988;49.238;6.698;2023-01-19T07:26:51;98277.50;;;0.31;100.00
9899;BME280;4988;49.238;6.698;2023-01-19T07:29:17;98267.72;;;0.41;100.00
9899;BME280;4988;49.238;6.698;2023-01-19T07:31:42;98275.47;;;0.45;100.00
9899;BME280;4988;49.238;6.698;2023-01-19T07:34:07;98280.69;;;0.47;100.00
9899;BME280;4988;49.238;6.698;2023-01-19T07:36:33;98277.72;;;0.64;100.00
9899;BME280;4988;49.238;6.698;2023-01-19T07:38:59;98283.97;;;0.58;100.00
9899;BME280;4988;49.238;6.698;2023-01-19T07:41:25;98276.94;;;0.60;100.00
9899;BME280;4988;49.238;6.698;2023-01-19T07:43:50;98287.31;;;0.67;100.00
9899;BME280;4988;49.238;6.698;2023-01-19T07:46:16;98281.13;;;0.69;100.00
9899;BME280;4988;49.238;6.698;2023-01-19T07:48:42;98279.13;;;0.82;100.00
9899;BME280;4988;49.238;6.698;2023-01-19T07:51:09;98280.84;;;0.83;100.00
9899;BME280;4988;49.238;6.698;2023-01-19T07:53:36;98286.84;;;0.88;100.00
9899;BME280;4988;49.238;6.698;2023-01-19T07:56:02;98302.66;;;0.85;100.00
9899;BME280;4988;49.238;6.698;2023-01-19T07:58:28;98295.72;;;0.81;100.00
9899;BME280;4988;49.238;6.698;2023-01-19T08:00:54;98300.91;;;0.84;100.00
9899;BME280;4988;49.238;6.698;2023-01-19T08:03:19;98299.19;;;0.83;100.00
9899;BME280;4988;49.238;6.698;2023-01-19T08:05:49;98301.66;;;0.89;100.00
9899;BME280;4988;49.238;6.698;2023-01-19T08:08:15;98302.69;;;0.82;100.00
9899;BME280;4988;49.238;6.698;2023-01-19T08:10:40;98310.50;;;0.85;100.00
9899;BME280;4988;49.238;6.698;2023-01-19T08:13:05;98301.66;;;0.89;100.00
9899;BME280;4988;49.238;6.698;2023-01-19T08:15:31;98309.63;;;0.85;100.00
9899;BME280;4988;49.238;6.698;2023-01-19T08:17:56;98311.13;;;0.96;100.00
9899;BME280;4988;49.238;6.698;2023-01-19T08:20:22;98310.94;;;1.06;100.00
9899;BME280;4988;49.238;6.698;2023-01-19T08:22:48;98316.25;;;1.03;100.00
9899;BME280;4988;49.238;6.698;2023-01-19T08:25:13;98314.69;;;0.92;100.00
9899;BME280;4988;49.238;6.698;2023-01-19T08:27:39;98317.22;;;0.97;100.00
9899;BME280;4988;49.238;6.698;2023-01-19T08:30:04;98309.66;;;0.83;100.00
9899;BME280;4988;49.238;6.698;2023-01-19T08:32:30;98316.75;;;0.78;100.00
9899;BME280;4988;49.238;6.698;2023-01-19T08:34:56;98313.38;;;0.73;100.00
9899;BME280;4988;49.238;6.698;2023-01-19T08:37:22;98313.41;;;0.70;100.00
9899;BME280;4988;49.238;6.698;2023-01-19T08:39:48;98317.00;;;0.66;100.00
9899;BME280;4988;49.238;6.698;2023-01-19T08:42:14;98318.78;;;0.63;100.00
9899;BME280;4988;49.238;6.698;2023-01-19T08:44:39;98329.25;;;0.63;100.00
9899;BME280;4988;49.238;6.698;2023-01-19T08:47:04;98325.78;;;0.61;100.00
9899;BME280;4988;49.238;6.698;2023-01-19T08:49:30;98329.19;;;0.67;100.00
9899;BME280;4988;49.238;6.698;2023-01-19T08:51:55;98330.94;;;0.66;100.00
9899;BME280;4988;49.238;6.698;2023-01-19T08:54:20;98329.19;;;0.67;100.00
9899;BME280;4988;49.238;6.698;2023-01-19T08:56:47;98329.97;;;0.70;100.00
9899;BME280;4988;49.238;6.698;2023-01-19T08:59:12;98334.31;;;0.73;100.00
9899;BME280;4988;49.238;6.698;2023-01-19T09:01:37;98333.28;;;0.82;100.00
9899;BME280;4988;49.238;6.698;2023-01-19T09:04:03;98335.00;;;0.81;100.00
9899;BME280;4988;49.238;6.698;2023-01-19T09:06:28;98335.13;;;0.76;100.00
9899;BME280;4988;49.238;6.698;2023-01-19T09:08:54;98334.19;;;0.79;100.00
9899;BME280;4988;49.238;6.698;2023-01-19T09:11:19;98347.34;;;0.76;100.00
9899;BME280;4988;49.238;6.698;2023-01-19T09:13:44;98346.47;;;0.77;100.00
9899;BME280;4988;49.238;6.698;2023-01-19T09:16:10;98343.00;;;0.76;100.00
9899;BME280;4988;49.238;6.698;2023-01-19T09:18:37;98339.47;;;0.76;100.00
9899;BME280;4988;49.238;6.698;2023-01-19T09:21:03;98345.59;;;0.76;100.00
9899;BME280;4988;49.238;6.698;2023-01-19T09:23:28;98348.94;;;0.83;100.00
9899;BME280;4988;49.238;6.698;2023-01-19T09:25:59;98346.38;;;0.80;100.00
9899;BME280;4988;49.238;6.698;2023-01-19T09:28:25;98346.25;;;0.86;100.00
9899;BME280;4988;49.238;6.698;2023-01-19T09:30:50;98349.84;;;0.82;100.00
9899;BME280;4988;49.238;6.698;2023-01-19T09:33:17;98349.84;;;0.82;100.00
9899;BME280;4988;49.238;6.698;2023-01-19T09:35:44;98346.34;;;0.83;100.00
9899;BME280;4988;49.238;6.698;2023-01-19T09:38:10;98356.81;;;0.83;100.00
9899;BME280;4988;49.238;6.698;2023-01-19T09:40:40;98358.59;;;0.81;100.00
9899;BME280;4988;49.238;6.698;2023-01-19T09:43:20;98352.44;;;0.84;100.00
9899;BME280;4988;49.238;6.698;2023-01-19T09:45:57;98352.50;;;0.80;100.00
9899;BME280;4988;49.238;6.698;2023-01-19T09:48:45;98360.28;;;0.85;100.00
9899;BME280;4988;49.238;6.698;2023-01-19T09:51:23;98360.19;;;0.88;100.00
9899;BME280;4988;49.238;6.698;2023-01-19T09:53:51;98364.59;;;0.88;100.00
9899;BME280;4988;49.238;6.698;2023-01-19T09:56:20;98367.97;;;0.93;100.00
9899;BME280;4988;49.238;6.698;2023-01-19T09:58:48;98371.44;;;0.95;100.00
9899;BME280;4988;49.238;6.698;2023-01-19T10:03:53;98371.44;;;0.95;100.00
9899;BME280;4988;49.238;6.698;2023-01-19T10:06:24;98367.91;;;0.96;100.00
9899;BME280;4988;49.238;6.698;2023-01-19T10:09:06;98368.66;;;1.03;100.00
9899;BME280;4988;49.238;6.698;2023-01-19T10:11:48;98360.84;;;1.01;100.00
9899;BME280;4988;49.238;6.698;2023-01-19T10:14:21;98361.69;;;1.02;100.00
9899;BME280;4988;49.238;6.698;2023-01-19T10:17:01;98362.31;;;1.13;100.00
9899;BME280;4988;49.238;6.698;2023-01-19T10:19:42;98370.13;;;1.16;100.00
9899;BME280;4988;49.238;6.698;2023-01-19T10:22:19;98375.38;;;1.16;100.00
9899;BME280;4988;49.238;6.698;2023-01-19T10:24:47;98376.19;;;1.20;100.00
9899;BME280;4988;49.238;6.698;2023-01-19T10:27:17;98382.28;;;1.20;100.00
9899;BME280;4988;49.238;6.698;2023-01-19T10:29:45;98383.94;;;1.24;100.00
9899;BME280;4988;49.238;6.698;2023-01-19T10:32:12;98366.53;;;1.20;100.00
9899;BME280;4988;49.238;6.698;2023-01-19T10:34:39;98373.56;;;1.20;100.00
9899;BME280;4988;49.238;6.698;2023-01-19T10:37:37;98372.59;;;1.24;100.00
9899;BME280;4988;49.238;6.698;2023-01-19T10:42:35;98371.78;;;1.20;100.00
9899;BME280;4988;49.238;6.698;2023-01-19T10:45:01;98362.06;;;1.25;100.00
9899;BME280;4988;49.238;6.698;2023-01-19T10:47:33;98363.72;;;1.31;100.00
9899;BME280;4988;49.238;6.698;2023-01-19T10:50:17;98363.75;;;1.28;100.00
9899;BME280;4988;49.238;6.698;2023-01-19T10:52:49;98369.88;;;1.28;100.00
9899;BME280;4988;49.238;6.698;2023-01-19T10:57:49;98366.28;;;1.33;100.00
9899;BME280;4988;49.238;6.698;2023-01-19T11:00:38;98360.16;;;1.34;100.00
9899;BME280;4988;49.238;6.698;2023-01-19T11:03:23;98361.00;;;1.36;100.00
9899;BME280;4988;49.238;6.698;2023-01-19T11:05:49;98356.44;;;1.44;100.00
9899;BME280;4988;49.238;6.698;2023-01-19T11:08:26;98360.78;;;1.45;100.00
9899;BME280;4988;49.238;6.698;2023-01-19T11:10:58;98358.91;;;1.50;100.00
9899;BME280;4988;49.238;6.698;2023-01-19T11:13:26;98350.91;;;1.58;100.00
9899;BME280;4988;49.238;6.698;2023-01-19T11:15:57;98350.81;;;1.61;99.91
9899;BME280;4988;49.238;6.698;2023-01-19T11:18:27;98345.53;;;1.63;98.71
9899;BME280;4988;49.238;6.698;2023-01-19T11:20:55;98344.81;;;1.56;98.12
9899;BME280;4988;49.238;6.698;2023-01-19T11:23:27;98345.56;;;1.61;98.33
9899;BME280;4988;49.238;6.698;2023-01-19T11:25:56;98355.13;;;1.64;98.37
9899;BME280;4988;49.238;6.698;2023-01-19T11:28:34;98355.97;;;1.66;97.62
9899;BME280;4988;49.238;6.698;2023-01-19T11:31:02;98353.25;;;1.70;97.97
9899;BME280;4988;49.238;6.698;2023-01-19T11:33:40;98345.38;;;1.70;97.43
9899;BME280;4988;49.238;6.698;2023-01-19T11:36:16;98337.50;;;1.69;97.70
9899;BME280;4988;49.238;6.698;2023-01-19T11:38:44;98340.06;;;1.72;97.19
9899;BME280;4988;49.238;6.698;2023-01-19T11:41:32;98340.81;;;1.77;96.58
9899;BME280;4988;49.238;6.698;2023-01-19T11:44:25;98340.25;;;1.64;96.30
9899;BME280;4988;49.238;6.698;2023-01-19T11:46:55;98336.66;;;1.68;96.65
9899;BME280;4988;49.238;6.698;2023-01-19T11:49:48;98334.81;;;1.72;97.64
9899;BME280;4988;49.238;6.698;2023-01-19T11:52:38;98331.22;;;1.76;97.73
9899;BME280;4988;49.238;6.698;2023-01-19T11:55:36;98329.44;;;1.78;96.01
9899;BME280;4988;49.238;6.698;2023-01-19T11:58:05;98332.94;;;1.77;95.97
9899;BME280;4988;49.238;6.698;2023-01-19T12:00:35;98332.91;;;1.80;96.90
9899;BME280;4988;49.238;6.698;2023-01-19T12:05:52;98330.97;;;1.87;96.72
9899;BME280;4988;49.238;6.698;2023-01-19T12:08:25;98326.63;;;1.86;97.11
9899;BME280;4988;49.238;6.698;2023-01-19T12:10:53;98331.13;;;1.81;96.22
9899;BME280;4988;49.238;6.698;2023-01-19T12:13:22;98331.16;;;1.79;96.63
9899;BME280;4988;49.238;6.698;2023-01-19T12:15:59;98325.91;;;1.79;96.58
9899;BME280;4988;49.238;6.698;2023-01-19T12:18:34;98325.97;;;1.77;96.24
9899;BME280;4988;49.238;6.698;2023-01-19T12:21:00;98325.16;;;1.74;96.66
9899;BME280;4988;49.238;6.698;2023-01-19T12:23:55;98321.72;;;1.72;97.58
9899;BME280;4988;49.238;6.698;2023-01-19T12:26:34;98318.19;;;1.73;97.27
9899;BME280;4988;49.238;6.698;2023-01-19T12:31:36;98316.25;;;1.81;96.92
9899;BME280;4988;49.238;6.698;2023-01-19T12:34:27;98317.81;;;1.88;96.77
9899;BME280;4988;49.238;6.698;2023-01-19T12:37:03;98312.56;;;1.88;96.20
9899;BME280;4988;49.238;6.698;2023-01-19T12:39:31;98316.03;;;1.90;96.47
9899;BME280;4988;49.238;6.698;2023-01-19T12:42:12;98309.88;;;1.91;97.03
9899;BME280;4988;49.238;6.698;2023-01-19T12:44:44;98308.09;;;1.93;96.30
9899;BME280;4988;49.238;6.698;2023-01-19T12:47:20;98306.16;;;2.00;97.22
9899;BME280;4988;49.238;6.698;2023-01-19T12:49:56;98302.69;;;2.00;96.72
9899;BME280;4988;49.238;6.698;2023-01-19T12:52:40;98301.69;;;2.04;96.95
9899;BME280;4988;49.238;6.698;2023-01-19T13:00:29;98301.59;;;2.07;94.83
9899;BME280;4988;49.238;6.698;2023-01-19T13:02:56;98301.38;;;2.16;95.52
9899;BME280;4988;49.238;6.698;2023-01-19T13:21:29;98306.94;;;2.04;95.62
9899;BME280;4988;49.238;6.698;2023-01-19T13:23:59;98312.31;;;1.99;95.06
9899;BME280;4988;49.238;6.698;2023-01-19T13:26:41;98304.28;;;2.05;95.56
9899;BME280;4988;49.238;6.698;2023-01-19T13:29:14;98299.97;;;2.03;95.99
9899;BME280;4988;49.238;6.698;2023-01-19T13:31:42;98306.94;;;2.04;95.15
9899;BME280;4988;49.238;6.698;2023-01-19T13:34:11;98300.06;;;2.00;95.74
9899;BME280;4988;49.238;6.698;2023-01-19T13:36:42;98299.97;;;2.03;95.56
9899;BME280;4988;49.238;6.698;2023-01-19T13:39:19;98292.91;;;2.05;95.44
9899;BME280;4988;49.238;6.698;2023-01-19T13:41:48;98303.31;;;2.09;95.37
9899;BME280;4988;49.238;6.698;2023-01-19T13:44:24;98307.72;;;2.07;94.86
9899;BME280;4988;49.238;6.698;2023-01-19T13:46:51;98299.91;;;2.06;94.87
9899;BME280;4988;49.238;6.698;2023-01-19T13:49:34;98296.97;;;2.17;94.79
9899;BME280;4988;49.238;6.698;2023-01-19T13:52:28;98305.00;;;2.11;93.58
9899;BME280;4988;49.238;6.698;2023-01-19T13:54:58;98304.91;;;2.15;93.99
9899;BME280;4988;49.238;6.698;2023-01-19T13:57:28;98304.09;;;2.13;93.63
9899;BME280;4988;49.238;6.698;2023-01-19T14:10:28;98308.69;;;2.05;92.56
9899;BME280;4988;49.238;6.698;2023-01-19T14:13:13;98310.25;;;2.12;93.20
9899;BME280;4988;49.238;6.698;2023-01-19T14:15:39;98312.78;;;2.15;92.92
9899;BME280;4988;49.238;6.698;2023-01-19T14:20:38;98302.13;;;2.21;92.65
9899;BME280;4988;49.238;6.698;2023-01-19T14:23:05;98304.59;;;2.28;92.49
9899;BME280;4988;49.238;6.698;2023-01-19T14:25:34;98308.19;;;2.23;92.87
9899;BME280;4988;49.238;6.698;2023-01-19T14:28:44;98306.47;;;2.22;92.71
9899;BME280;4988;49.238;6.698;2023-01-19T14:31:20;98307.31;;;2.24;92.38
9899;BME280;4988;49.238;6.698;2023-01-19T14:33:54;98302.06;;;2.23;92.38